Hesper, Montana
Current Conditions -  °F | °C
As of 4:53 AM on Friday 19 Dec 2014 (Local Time) from KBIL Reporting Station
Overcast Overcast  
Wind Chill: 22°   Ceiling: 9000
Heat Index: 33°   Visibility: 10mi
Dew Point: 19°   Wind: 20mph
Humidity: 56%   Direction: 230°SW
Pressure: 29.95"   Gusts: NA
Location:  45.7752°N, 108.58°W
Report Text: KBIL 191153Z 23017KT 10SM OVC090 01/M07 A2995 RMK AO2 SLP165 T00061072 10006 21011 58003
Loading
Personal Weather Stations






























Interactive Weather Map New forecast layout! Learn more

10-Day Weather Forecast

Advertisements
Track Severe Weather on mobile